sensor_id;sensor_type;location;lat;lon;timestamp;pressure;altitude;pressure_sealevel;temperature;humidity
52735;BME280;38631;47.572;10.704;2023-04-06T00:01:21;92640.34;;;-0.96;80.79
52735;BME280;38631;47.572;10.704;2023-04-06T00:03:47;92644.50;;;-0.83;80.72
52735;BME280;38631;47.572;10.704;2023-04-06T00:06:12;92636.94;;;-1.37;81.25
52735;BME280;38631;47.572;10.704;2023-04-06T00:08:37;92648.41;;;-0.98;80.37
52735;BME280;38631;47.572;10.704;2023-04-06T00:11:03;92649.97;;;-0.97;79.95
52735;BME280;38631;47.572;10.704;2023-04-06T00:13:28;92641.56;;;-0.87;80.17
52735;BME280;38631;47.572;10.704;2023-04-06T00:15:54;92641.47;;;-0.92;80.41
52735;BME280;38631;47.572;10.704;2023-04-06T00:18:19;92642.38;;;-0.98;78.92
52735;BME280;38631;47.572;10.704;2023-04-06T00:20:44;92644.59;;;-1.19;80.52
52735;BME280;38631;47.572;10.704;2023-04-06T00:23:10;92648.72;;;-0.94;79.92
52735;BME280;38631;47.572;10.704;2023-04-06T00:25:35;92639.34;;;-1.47;80.12
52735;BME280;38631;47.572;10.704;2023-04-06T00:28:01;92643.50;;;-1.23;80.57
52735;BME280;38631;47.572;10.704;2023-04-06T00:30:26;92638.75;;;-1.38;80.57
52735;BME280;38631;47.572;10.704;2023-04-06T00:32:52;92633.97;;;-1.41;81.84
52735;BME280;38631;47.572;10.704;2023-04-06T00:35:17;92641.03;;;-1.01;80.44
52735;BME280;38631;47.572;10.704;2023-04-06T00:37:42;92627.19;;;-1.30;80.55
52735;BME280;38631;47.572;10.704;2023-04-06T00:40:08;92625.41;;;-1.53;81.00
52735;BME280;38631;47.572;10.704;2023-04-06T00:42:34;92630.69;;;-1.36;81.53
52735;BME280;38631;47.572;10.704;2023-04-06T00:45:00;92634.84;;;-1.12;80.67
52735;BME280;38631;47.572;10.704;2023-04-06T00:47:26;92637.31;;;-1.45;80.52
52735;BME280;38631;47.572;10.704;2023-04-06T00:49:53;92647.09;;;-1.24;81.55
52735;BME280;38631;47.572;10.704;2023-04-06T00:52:19;92641.97;;;-1.07;81.24
52735;BME280;38631;47.572;10.704;2023-04-06T00:54:44;92640.59;;;-0.98;80.54
52735;BME280;38631;47.572;10.704;2023-04-06T00:57:11;92633.56;;;-1.49;81.30
52735;BME280;38631;47.572;10.704;2023-04-06T00:59:36;92633.91;;;-1.58;81.64
52735;BME280;38631;47.572;10.704;2023-04-06T01:02:02;92634.34;;;-1.37;81.93
52735;BME280;38631;47.572;10.704;2023-04-06T01:04:27;92637.38;;;-1.28;81.12
52735;BME280;38631;47.572;10.704;2023-04-06T01:06:53;92636.56;;;-1.17;80.50
52735;BME280;38631;47.572;10.704;2023-04-06T01:09:18;92629.03;;;-1.54;81.55
52735;BME280;38631;47.572;10.704;2023-04-06T01:11:44;92639.06;;;-1.22;81.56
52735;BME280;38631;47.572;10.704;2023-04-06T01:14:09;92638.31;;;-0.94;79.98
52735;BME280;38631;47.572;10.704;2023-04-06T01:16:35;92639.19;;;-1.29;80.21
52735;BME280;38631;47.572;10.704;2023-04-06T01:19:01;92632.09;;;-1.45;81.73
52735;BME280;38631;47.572;10.704;2023-04-06T01:21:26;92633.31;;;-1.36;81.77
52735;BME280;38631;47.572;10.704;2023-04-06T01:23:52;92633.31;;;-1.36;81.52
52735;BME280;38631;47.572;10.704;2023-04-06T01:26:17;92631.25;;;-1.22;81.41
52735;BME280;38631;47.572;10.704;2023-04-06T01:28:42;92625.56;;;-1.19;80.15
52735;BME280;38631;47.572;10.704;2023-04-06T01:31:09;92628.59;;;-1.11;81.09
52735;BME280;38631;47.572;10.704;2023-04-06T01:33:35;92621.25;;;-1.14;81.88
52735;BME280;38631;47.572;10.704;2023-04-06T01:36:02;92627.03;;;-1.23;81.95
52735;BME280;38631;47.572;10.704;2023-04-06T01:38:28;92619.00;;;-1.22;81.85
52735;BME280;38631;47.572;10.704;2023-04-06T01:40:54;92615.75;;;-1.41;83.29
52735;BME280;38631;47.572;10.704;2023-04-06T01:43:19;92621.03;;;-1.12;83.12
52735;BME280;38631;47.572;10.704;2023-04-06T01:45:45;92614.09;;;-1.06;82.72
52735;BME280;38631;47.572;10.704;2023-04-06T01:48:11;92622.56;;;-0.99;82.80
52735;BME280;38631;47.572;10.704;2023-04-06T01:50:36;92617.66;;;-1.24;82.54
52735;BME280;38631;47.572;10.704;2023-04-06T01:53:01;92602.53;;;-1.11;81.76
52735;BME280;38631;47.572;10.704;2023-04-06T01:55:27;92611.28;;;-1.05;82.16
52735;BME280;38631;47.572;10.704;2023-04-06T01:57:52;92613.63;;;-1.03;82.93
52735;BME280;38631;47.572;10.704;2023-04-06T02:00:18;92610.94;;;-1.09;82.17
52735;BME280;38631;47.572;10.704;2023-04-06T02:02:43;92618.22;;;-1.22;83.76
52735;BME280;38631;47.572;10.704;2023-04-06T02:05:09;92615.13;;;-1.07;84.40
52735;BME280;38631;47.572;10.704;2023-04-06T02:07:34;92606.97;;;-1.11;83.14
52735;BME280;38631;47.572;10.704;2023-04-06T02:10:00;92616.47;;;-1.05;83.67
52735;BME280;38631;47.572;10.704;2023-04-06T02:12:25;92609.16;;;-1.20;85.26
52735;BME280;38631;47.572;10.704;2023-04-06T02:14:50;92608.59;;;-0.93;84.23
52735;BME280;38631;47.572;10.704;2023-04-06T02:17:16;92609.00;;;-1.13;83.34
52735;BME280;38631;47.572;10.704;2023-04-06T02:19:41;92614.94;;;-0.89;83.42
52735;BME280;38631;47.572;10.704;2023-04-06T02:22:07;92611.03;;;-1.03;82.65
52735;BME280;38631;47.572;10.704;2023-04-06T02:24:32;92612.94;;;-0.99;82.96
52735;BME280;38631;47.572;10.704;2023-04-06T02:26:57;92604.00;;;-1.03;83.15
52735;BME280;38631;47.572;10.704;2023-04-06T02:29:23;92613.16;;;-1.00;83.36
52735;BME280;38631;47.572;10.704;2023-04-06T02:31:48;92602.84;;;-0.95;83.51
52735;BME280;38631;47.572;10.704;2023-04-06T02:34:13;92589.53;;;-0.82;83.02
52735;BME280;38631;47.572;10.704;2023-04-06T02:36:45;92610.91;;;-0.97;83.54
52735;BME280;38631;47.572;10.704;2023-04-06T02:39:11;92596.03;;;-0.96;82.84
52735;BME280;38631;47.572;10.704;2023-04-06T02:41:37;92594.78;;;-0.94;83.33
52735;BME280;38631;47.572;10.704;2023-04-06T02:44:03;92600.56;;;-0.92;83.42
52735;BME280;38631;47.572;10.704;2023-04-06T02:46:29;92594.41;;;-0.85;84.11
52735;BME280;38631;47.572;10.704;2023-04-06T02:48:54;92590.97;;;-1.03;84.60
52735;BME280;38631;47.572;10.704;2023-04-06T02:51:20;92580.09;;;-1.00;84.59
52735;BME280;38631;47.572;10.704;2023-04-06T02:53:45;92586.28;;;-0.89;84.56
52735;BME280;38631;47.572;10.704;2023-04-06T02:56:11;92588.09;;;-0.90;84.81
52735;BME280;38631;47.572;10.704;2023-04-06T02:58:36;92589.09;;;-0.91;84.89
52735;BME280;38631;47.572;10.704;2023-04-06T03:01:02;92585.31;;;-1.00;84.40
52735;BME280;38631;47.572;10.704;2023-04-06T03:03:27;92591.56;;;-0.84;84.05
52735;BME280;38631;47.572;10.704;2023-04-06T03:05:52;92583.94;;;-0.74;82.83
52735;BME280;38631;47.572;10.704;2023-04-06T03:08:19;92590.75;;;-0.73;83.80
52735;BME280;38631;47.572;10.704;2023-04-06T03:10:45;92588.59;;;-0.76;83.74
52735;BME280;38631;47.572;10.704;2023-04-06T03:13:10;92590.44;;;-0.88;84.25
52735;BME280;38631;47.572;10.704;2023-04-06T03:15:35;92594.41;;;-0.85;83.92
52735;BME280;38631;47.572;10.704;2023-04-06T03:18:01;92588.75;;;-0.82;83.72
52735;BME280;38631;47.572;10.704;2023-04-06T03:20:26;92587.66;;;-0.70;84.09
52735;BME280;38631;47.572;10.704;2023-04-06T03:22:52;92578.63;;;-0.79;84.14
52735;BME280;38631;47.572;10.704;2023-04-06T03:25:17;92591.31;;;-0.99;84.58
52735;BME280;38631;47.572;10.704;2023-04-06T03:27:42;92584.38;;;-0.94;85.31
52735;BME280;38631;47.572;10.704;2023-04-06T03:30:08;92589.06;;;-0.79;84.39
52735;BME280;38631;47.572;10.704;2023-04-06T03:32:33;92580.69;;;-0.81;84.37
52735;BME280;38631;47.572;10.704;2023-04-06T03:34:59;92586.75;;;-0.92;84.48
52735;BME280;38631;47.572;10.704;2023-04-06T03:37:24;92580.41;;;-0.96;84.35
52735;BME280;38631;47.572;10.704;2023-04-06T03:39:49;92588.66;;;-0.88;85.09
52735;BME280;38631;47.572;10.704;2023-04-06T03:42:15;92598.94;;;-0.81;84.10
52735;BME280;38631;47.572;10.704;2023-04-06T03:44:41;92579.91;;;-0.81;84.63
52735;BME280;38631;47.572;10.704;2023-04-06T03:47:06;92586.16;;;-0.66;84.01
52735;BME280;38631;47.572;10.704;2023-04-06T03:49:31;92587.41;;;-0.68;83.72
52735;BME280;38631;47.572;10.704;2023-04-06T03:51:57;92594.41;;;-0.57;83.93
52735;BME280;38631;47.572;10.704;2023-04-06T03:54:22;92590.09;;;-0.63;83.36
52735;BME280;38631;47.572;10.704;2023-04-06T03:56:47;92593.63;;;-0.57;83.29
52735;BME280;38631;47.572;10.704;2023-04-06T03:59:13;92590.09;;;-0.63;84.60
52735;BME280;38631;47.572;10.704;2023-04-06T04:01:38;92593.59;;;-0.74;84.33
52735;BME280;38631;47.572;10.704;2023-04-06T04:04:04;92588.50;;;-0.81;84.62
52735;BME280;38631;47.572;10.704;2023-04-06T04:06:30;92586.03;;;-0.59;84.36
52735;BME280;38631;47.572;10.704;2023-04-06T04:08:55;92594.13;;;-0.72;84.07
52735;BME280;38631;47.572;10.704;2023-04-06T04:11:21;92598.75;;;-0.62;83.83
52735;BME280;38631;47.572;10.704;2023-04-06T04:13:46;92580.69;;;-0.81;84.47
52735;BME280;38631;47.572;10.704;2023-04-06T04:16:11;92582.19;;;-0.85;84.63
52735;BME280;38631;47.572;10.704;2023-04-06T04:18:37;92585.34;;;-1.12;84.77
52735;BME280;38631;47.572;10.704;2023-04-06T04:21:02;92589.44;;;-0.87;84.13
52735;BME280;38631;47.572;10.704;2023-04-06T04:23:27;92587.16;;;-1.12;85.06
52735;BME280;38631;47.572;10.704;2023-04-06T04:25:53;92586.19;;;-0.94;85.25
52735;BME280;38631;47.572;10.704;2023-04-06T04:28:18;92583.38;;;-0.76;83.81
52735;BME280;38631;47.572;10.704;2023-04-06T04:30:43;92592.81;;;-0.58;82.51
52735;BME280;38631;47.572;10.704;2023-04-06T04:33:09;92596.31;;;-0.52;82.02
52735;BME280;38631;47.572;10.704;2023-04-06T04:35:34;92598.44;;;-0.49;83.37
52735;BME280;38631;47.572;10.704;2023-04-06T04:38:00;92590.66;;;-0.61;83.33
52735;BME280;38631;47.572;10.704;2023-04-06T04:40:25;92589.72;;;-0.72;82.60
52735;BME280;38631;47.572;10.704;2023-04-06T04:42:51;92598.22;;;-0.48;83.36
52735;BME280;38631;47.572;10.704;2023-04-06T04:45:16;92603.63;;;-0.95;83.41
52735;BME280;38631;47.572;10.704;2023-04-06T04:47:41;92597.56;;;-0.83;nan
52735;BME280;38631;47.572;10.704;2023-04-06T04:50:07;92607.13;;;-0.89;84.10
52735;BME280;38631;47.572;10.704;2023-04-06T04:52:32;92599.78;;;-0.92;85.91
52735;BME280;38631;47.572;10.704;2023-04-06T04:54:58;92598.41;;;-0.66;84.05
52735;BME280;38631;47.572;10.704;2023-04-06T04:57:23;92605.63;;;-0.56;82.59
52735;BME280;38631;47.572;10.704;2023-04-06T04:59:49;92598.75;;;-0.62;83.39
52735;BME280;38631;47.572;10.704;2023-04-06T05:02:16;92592.63;;;-0.85;83.67
52735;BME280;38631;47.572;10.704;2023-04-06T05:04:41;92598.09;;;-0.98;83.96
52735;BME280;38631;47.572;10.704;2023-04-06T05:07:08;92604.56;;;-0.72;84.06
52735;BME280;38631;47.572;10.704;2023-04-06T05:09:33;92592.31;;;-0.72;83.45
52735;BME280;38631;47.572;10.704;2023-04-06T05:11:59;92600.97;;;-0.54;82.52
52735;BME280;38631;47.572;10.704;2023-04-06T05:14:26;92610.00;;;-0.45;81.72
52735;BME280;38631;47.572;10.704;2023-04-06T05:16:51;92603.53;;;-0.42;81.04
52735;BME280;38631;47.572;10.704;2023-04-06T05:19:17;92592.22;;;-0.77;83.38
52735;BME280;38631;47.572;10.704;2023-04-06T05:21:42;92606.66;;;-0.40;81.51
52735;BME280;38631;47.572;10.704;2023-04-06T05:24:08;92606.56;;;-0.46;81.96
52735;BME280;38631;47.572;10.704;2023-04-06T05:26:34;92605.56;;;-0.45;82.55
52735;BME280;38631;47.572;10.704;2023-04-06T05:28:59;92604.78;;;-0.45;82.99
52735;BME280;38631;47.572;10.704;2023-04-06T05:31:25;92603.81;;;-0.39;82.00
52735;BME280;38631;47.572;10.704;2023-04-06T05:33:50;92615.22;;;-0.45;82.64
52735;BME280;38631;47.572;10.704;2023-04-06T05:36:15;92611.50;;;-0.32;81.84
52735;BME280;38631;47.572;10.704;2023-04-06T05:38:41;92616.16;;;-0.34;82.42
52735;BME280;38631;47.572;10.704;2023-04-06T05:41:06;92610.63;;;-0.21;82.58
52735;BME280;38631;47.572;10.704;2023-04-06T05:43:32;92617.72;;;-0.50;84.82
52735;BME280;38631;47.572;10.704;2023-04-06T05:45:57;92616.22;;;-0.46;85.83
52735;BME280;38631;47.572;10.704;2023-04-06T05:48:23;92619.16;;;-0.26;84.62
52735;BME280;38631;47.572;10.704;2023-04-06T05:50:49;92627.22;;;-0.10;86.01
52735;BME280;38631;47.572;10.704;2023-04-06T05:53:15;92619.41;;;-0.44;86.38
52735;BME280;38631;47.572;10.704;2023-04-06T05:55:41;92610.56;;;-0.26;85.66
52735;BME280;38631;47.572;10.704;2023-04-06T05:58:06;92617.25;;;-0.30;86.08
52735;BME280;38631;47.572;10.704;2023-04-06T06:00:31;92624.09;;;-0.12;86.76
52735;BME280;38631;47.572;10.704;2023-04-06T06:02:57;92623.63;;;-0.09;86.51
52735;BME280;38631;47.572;10.704;2023-04-06T06:05:23;92621.41;;;-0.17;86.06
52735;BME280;38631;47.572;10.704;2023-04-06T06:07:48;92617.28;;;-0.13;86.94
52735;BME280;38631;47.572;10.704;2023-04-06T06:10:14;92623.13;;;0.11;85.97
52735;BME280;38631;47.572;10.704;2023-04-06T06:12:39;92632.53;;;0.29;85.51
52735;BME280;38631;47.572;10.704;2023-04-06T06:15:05;92630.06;;;0.39;83.90
52735;BME280;38631;47.572;10.704;2023-04-06T06:17:31;92633.38;;;0.34;83.40
52735;BME280;38631;47.572;10.704;2023-04-06T06:19:56;92624.63;;;0.24;80.83
52735;BME280;38631;47.572;10.704;2023-04-06T06:22:21;92637.81;;;0.51;78.33
52735;BME280;38631;47.572;10.704;2023-04-06T06:24:47;92638.94;;;0.77;77.66
52735;BME280;38631;47.572;10.704;2023-04-06T06:27:12;92638.81;;;0.89;78.11
52735;BME280;38631;47.572;10.704;2023-04-06T06:29:37;92632.94;;;0.98;76.58
52735;BME280;38631;47.572;10.704;2023-04-06T06:32:03;92641.44;;;1.11;76.90
52735;BME280;38631;47.572;10.704;2023-04-06T06:34:28;92637.63;;;1.18;76.23
52735;BME280;38631;47.572;10.704;2023-04-06T06:36:54;92638.09;;;1.15;76.83
52735;BME280;38631;47.572;10.704;2023-04-06T06:39:20;92633.91;;;1.14;77.24
52735;BME280;38631;47.572;10.704;2023-04-06T06:41:46;92631.88;;;1.21;77.96
52735;BME280;38631;47.572;10.704;2023-04-06T06:44:11;92637.63;;;1.18;76.86
52735;BME280;38631;47.572;10.704;2023-04-06T06:46:36;92642.91;;;1.23;76.24
52735;BME280;38631;47.572;10.704;2023-04-06T06:49:02;92641.00;;;1.41;76.18
52735;BME280;38631;47.572;10.704;2023-04-06T06:51:28;92634.31;;;1.55;76.03
52735;BME280;38631;47.572;10.704;2023-04-06T06:53:53;92629.69;;;1.89;73.81
52735;BME280;38631;47.572;10.704;2023-04-06T06:56:18;92633.75;;;2.07;72.79
52735;BME280;38631;47.572;10.704;2023-04-06T06:58:44;92632.47;;;2.10;71.97
52735;BME280;38631;47.572;10.704;2023-04-06T07:01:10;92636.00;;;1.93;72.63
52735;BME280;38631;47.572;10.704;2023-04-06T07:03:35;92636.75;;;1.89;74.74
52735;BME280;38631;47.572;10.704;2023-04-06T07:06:00;92642.03;;;1.94;73.86
52735;BME280;38631;47.572;10.704;2023-04-06T07:08:26;92639.50;;;2.04;73.97
52735;BME280;38631;47.572;10.704;2023-04-06T07:10:52;92630.63;;;2.48;71.62
52735;BME280;38631;47.572;10.704;2023-04-06T07:13:19;92636.91;;;2.89;69.81
52735;BME280;38631;47.572;10.704;2023-04-06T07:15:48;92638.88;;;3.19;68.81
52735;BME280;38631;47.572;10.704;2023-04-06T07:18:14;92631.06;;;3.35;65.60
52735;BME280;38631;47.572;10.704;2023-04-06T07:20:39;92642.16;;;3.57;65.70
52735;BME280;38631;47.572;10.704;2023-04-06T07:23:05;92633.28;;;3.79;65.51
52735;BME280;38631;47.572;10.704;2023-04-06T07:25:30;92645.53;;;3.53;61.59
52735;BME280;38631;47.572;10.704;2023-04-06T07:27:56;92645.31;;;3.59;61.76
52735;BME280;38631;47.572;10.704;2023-04-06T07:30:21;92643.19;;;3.56;61.18
52735;BME280;38631;47.572;10.704;2023-04-06T07:32:47;92642.66;;;3.44;59.89
52735;BME280;38631;47.572;10.704;2023-04-06T07:35:13;92638.38;;;3.28;58.94
52735;BME280;38631;47.572;10.704;2023-04-06T07:37:38;92644.69;;;3.27;58.60
52735;BME280;38631;47.572;10.704;2023-04-06T07:40:04;92644.47;;;3.49;61.59
52735;BME280;38631;47.572;10.704;2023-04-06T07:42:30;92639.03;;;3.81;60.48
52735;BME280;38631;47.572;10.704;2023-04-06T07:44:55;92643.00;;;3.99;60.93
52735;BME280;38631;47.572;10.704;2023-04-06T07:47:21;92654.03;;;4.21;61.58
52735;BME280;38631;47.572;10.704;2023-04-06T07:49:46;92641.19;;;4.20;60.45
52735;BME280;38631;47.572;10.704;2023-04-06T07:52:12;92646.44;;;4.40;60.75
52735;BME280;38631;47.572;10.704;2023-04-06T07:54:37;92643.81;;;4.40;57.55
52735;BME280;38631;47.572;10.704;2023-04-06T07:57:02;92644.88;;;4.44;57.91
52735;BME280;38631;47.572;10.704;2023-04-06T07:59:28;92642.25;;;4.44;53.31
52735;BME280;38631;47.572;10.704;2023-04-06T08:01:53;92641.94;;;4.51;55.05
52735;BME280;38631;47.572;10.704;2023-04-06T08:04:20;92647.19;;;4.71;56.25
52735;BME280;38631;47.572;10.704;2023-04-06T08:06:45;92648.22;;;4.86;57.35
52735;BME280;38631;47.572;10.704;2023-04-06T08:09:11;92638.94;;;5.09;56.96
52735;BME280;38631;47.572;10.704;2023-04-06T08:11:36;92643.75;;;4.86;57.00
52735;BME280;38631;47.572;10.704;2023-04-06T08:14:01;92641.81;;;5.17;55.44
52735;BME280;38631;47.572;10.704;2023-04-06T08:16:27;92637.66;;;4.96;54.90
52735;BME280;38631;47.572;10.704;2023-04-06T08:18:52;92645.28;;;5.08;57.30
52735;BME280;38631;47.572;10.704;2023-04-06T08:21:18;92641.09;;;4.96;54.50
52735;BME280;38631;47.572;10.704;2023-04-06T08:23:43;92647.06;;;5.23;54.97
52735;BME280;38631;47.572;10.704;2023-04-06T08:26:09;92634.50;;;5.04;53.07
52735;BME280;38631;47.572;10.704;2023-04-06T08:28:35;92641.94;;;4.76;50.94
52735;BME280;38631;47.572;10.704;2023-04-06T08:31:06;92641.44;;;4.64;49.79
52735;BME280;38631;47.572;10.704;2023-04-06T08:33:33;92641.69;;;4.58;50.61
52735;BME280;38631;47.572;10.704;2023-04-06T08:36:11;92645.38;;;4.67;50.00
52735;BME280;38631;47.572;10.704;2023-04-06T08:38:37;92641.63;;;4.88;50.89
52735;BME280;38631;47.572;10.704;2023-04-06T08:41:13;92650.03;;;5.01;50.02
52735;BME280;38631;47.572;10.704;2023-04-06T08:43:59;92641.91;;;4.92;51.69
52735;BME280;38631;47.572;10.704;2023-04-06T08:46:25;92634.19;;;5.16;50.92
52735;BME280;38631;47.572;10.704;2023-04-06T08:48:55;92648.38;;;5.30;48.59
52735;BME280;38631;47.572;10.704;2023-04-06T08:51:23;92648.63;;;5.24;49.21
52735;BME280;38631;47.572;10.704;2023-04-06T08:53:49;92639.91;;;5.38;49.28
52735;BME280;38631;47.572;10.704;2023-04-06T08:56:15;92628.28;;;5.50;47.10
52735;BME280;38631;47.572;10.704;2023-04-06T08:58:41;92638.94;;;5.74;51.99
52735;BME280;38631;47.572;10.704;2023-04-06T09:01:08;92643.63;;;5.32;50.72
52735;BME280;38631;47.572;10.704;2023-04-06T09:03:39;92636.53;;;5.23;53.40
52735;BME280;38631;47.572;10.704;2023-04-06T09:06:05;92641.56;;;5.09;51.45
52735;BME280;38631;47.572;10.704;2023-04-06T09:08:35;92634.03;;;4.87;52.07
52735;BME280;38631;47.572;10.704;2023-04-06T09:11:01;92633.78;;;4.78;51.64
52735;BME280;38631;47.572;10.704;2023-04-06T09:13:27;92634.03;;;4.71;53.42
52735;BME280;38631;47.572;10.704;2023-04-06T09:16:05;92635.38;;;4.64;52.32
52735;BME280;38631;47.572;10.704;2023-04-06T09:18:33;92634.88;;;4.62;53.16
52735;BME280;38631;47.572;10.704;2023-04-06T09:21:03;92629.84;;;4.70;51.96
52735;BME280;38631;47.572;10.704;2023-04-06T09:23:29;92631.66;;;4.85;52.45
52735;BME280;38631;47.572;10.704;2023-04-06T09:26:11;92630.06;;;4.94;51.38
52735;BME280;38631;47.572;10.704;2023-04-06T09:28:47;92637.97;;;4.94;50.92
52735;BME280;38631;47.572;10.704;2023-04-06T09:31:14;92639.53;;;4.90;51.37
52735;BME280;38631;47.572;10.704;2023-04-06T09:33:41;92625.81;;;4.98;51.92
52735;BME280;38631;47.572;10.704;2023-04-06T09:36:07;92631.88;;;4.99;50.18
52735;BME280;38631;47.572;10.704;2023-04-06T09:38:37;92630.31;;;4.98;52.23
52735;BME280;38631;47.572;10.704;2023-04-06T09:41:03;92628.78;;;4.82;50.63
52735;BME280;38631;47.572;10.704;2023-04-06T09:43:28;92623.22;;;4.88;49.51
52735;BME280;38631;47.572;10.704;2023-04-06T09:45:55;92626.28;;;5.16;50.54
52735;BME280;38631;47.572;10.704;2023-04-06T09:48:22;92630.22;;;5.18;51.38
52735;BME280;38631;47.572;10.704;2023-04-06T09:50:50;92631.28;;;5.23;53.73
52735;BME280;38631;47.572;10.704;2023-04-06T09:53:20;92630.47;;;5.32;54.04
52735;BME280;38631;47.572;10.704;2023-04-06T09:55:46;92629.09;;;5.45;50.52
52735;BME280;38631;47.572;10.704;2023-04-06T09:58:16;92624.63;;;5.40;50.13
52735;BME280;38631;47.572;10.704;2023-04-06T10:06:03;92615.16;;;5.39;47.96
52735;BME280;38631;47.572;10.704;2023-04-06T10:08:29;92621.94;;;6.40;49.95
52735;BME280;38631;47.572;10.704;2023-04-06T10:10:57;92601.94;;;5.89;47.62
52735;BME280;38631;47.572;10.704;2023-04-06T10:13:23;92611.59;;;5.65;48.56
52735;BME280;38631;47.572;10.704;2023-04-06T10:15:51;92596.59;;;5.65;49.01
52735;BME280;38631;47.572;10.704;2023-04-06T10:18:17;92599.97;;;6.15;49.17
52735;BME280;38631;47.572;10.704;2023-04-06T10:20:48;92603.13;;;6.17;49.75
52735;BME280;38631;47.572;10.704;2023-04-06T10:23:22;92602.50;;;5.86;50.37
52735;BME280;38631;47.572;10.704;2023-04-06T10:26:00;92605.28;;;5.66;47.32
52735;BME280;38631;47.572;10.704;2023-04-06T10:28:31;92602.38;;;5.67;49.34
52735;BME280;38631;47.572;10.704;2023-04-06T10:30:58;92603.66;;;5.75;46.59
52735;BME280;38631;47.572;10.704;2023-04-06T10:33:24;92604.31;;;5.96;47.77
52735;BME280;38631;47.572;10.704;2023-04-06T10:35:49;92608.63;;;6.21;48.29
52735;BME280;38631;47.572;10.704;2023-04-06T10:38:15;92604.03;;;6.02;47.04
52735;BME280;38631;47.572;10.704;2023-04-06T10:40:45;92605.59;;;6.03;48.87
52735;BME280;38631;47.572;10.704;2023-04-06T10:43:21;92602.84;;;5.79;47.03
52735;BME280;38631;47.572;10.704;2023-04-06T10:46:00;92603.59;;;5.35;47.37
52735;BME280;38631;47.572;10.704;2023-04-06T10:48:42;92603.50;;;5.51;48.00
52735;BME280;38631;47.572;10.704;2023-04-06T10:51:12;92607.44;;;5.53;48.28
52735;BME280;38631;47.572;10.704;2023-04-06T10:54:01;92610.38;;;5.41;47.78
52735;BME280;38631;47.572;10.704;2023-04-06T10:56:30;92603.53;;;5.46;48.53
52735;BME280;38631;47.572;10.704;2023-04-06T10:58:59;92615.09;;;5.50;48.60
52735;BME280;38631;47.572;10.704;2023-04-06T11:01:25;92605.03;;;5.62;48.73
52735;BME280;38631;47.572;10.704;2023-04-06T11:03:54;92600.72;;;5.76;48.33
52735;BME280;38631;47.572;10.704;2023-04-06T11:06:20;92599.44;;;5.69;47.33
52735;BME280;38631;47.572;10.704;2023-04-06T11:08:46;92604.28;;;6.01;47.40
52735;BME280;38631;47.572;10.704;2023-04-06T11:11:15;92581.69;;;6.82;48.47
52735;BME280;38631;47.572;10.704;2023-04-06T11:13:51;92589.91;;;6.22;46.92
52735;BME280;38631;47.572;10.704;2023-04-06T11:16:17;92574.81;;;5.89;46.11
52735;BME280;38631;47.572;10.704;2023-04-06T11:18:53;92580.16;;;5.78;47.83
52735;BME280;38631;47.572;10.704;2023-04-06T11:21:31;92585.19;;;5.75;45.65
52735;BME280;38631;47.572;10.704;2023-04-06T11:24:24;92584.47;;;5.64;46.95
52735;BME280;38631;47.572;10.704;2023-04-06T11:26:55;92578.94;;;5.66;46.92
52735;BME280;38631;47.572;10.704;2023-04-06T11:29:25;92578.19;;;5.60;47.61
52735;BME280;38631;47.572;10.704;2023-04-06T11:31:52;92586.84;;;5.60;46.64
52735;BME280;38631;47.572;10.704;2023-04-06T11:34:19;92569.25;;;5.51;47.40
52735;BME280;38631;47.572;10.704;2023-04-06T11:36:46;92571.84;;;5.61;48.34
52735;BME280;38631;47.572;10.704;2023-04-06T11:39:20;92575.28;;;5.56;47.03
52735;BME280;38631;47.572;10.704;2023-04-06T11:41:51;92571.31;;;5.59;46.96
52735;BME280;38631;47.572;10.704;2023-04-06T11:44:37;92569.97;;;5.61;47.85
52735;BME280;38631;47.572;10.704;2023-04-06T11:47:09;92567.63;;;6.04;50.80
52735;BME280;38631;47.572;10.704;2023-04-06T11:49:40;92551.31;;;6.32;51.59
52735;BME280;38631;47.572;10.704;2023-04-06T11:52:34;92560.50;;;6.34;49.58
52735;BME280;38631;47.572;10.704;2023-04-06T11:55:16;92564.56;;;6.21;47.75
52735;BME280;38631;47.572;10.704;2023-04-06T11:57:42;92561.81;;;6.08;47.02
52735;BME280;38631;47.572;10.704;2023-04-06T12:00:09;92559.59;;;6.20;46.51
52735;BME280;38631;47.572;10.704;2023-04-06T12:02:35;92550.00;;;6.29;47.77
52735;BME280;38631;47.572;10.704;2023-04-06T12:05:03;92544.25;;;6.22;45.67
52735;BME280;38631;47.572;10.704;2023-04-06T12:07:29;92544.00;;;6.23;46.43
52735;BME280;38631;47.572;10.704;2023-04-06T12:09:55;92539.19;;;6.31;47.57
52735;BME280;38631;47.572;10.704;2023-04-06T12:12:21;92540.59;;;6.52;46.58
52735;BME280;38631;47.572;10.704;2023-04-06T12:14:46;92542.25;;;6.43;46.42
52735;BME280;38631;47.572;10.704;2023-04-06T12:17:11;92545.53;;;6.30;46.18
52735;BME280;38631;47.572;10.704;2023-04-06T12:19:37;92549.22;;;6.28;45.79
52735;BME280;38631;47.572;10.704;2023-04-06T12:22:02;92547.94;;;6.26;45.18
52735;BME280;38631;47.572;10.704;2023-04-06T12:24:28;92543.22;;;6.23;46.25
52735;BME280;38631;47.572;10.704;2023-04-06T12:26:54;92540.13;;;6.45;48.72
52735;BME280;38631;47.572;10.704;2023-04-06T12:29:19;92542.56;;;6.36;48.40
52735;BME280;38631;47.572;10.704;2023-04-06T12:31:45;92524.66;;;6.62;47.57
52735;BME280;38631;47.572;10.704;2023-04-06T12:34:10;92524.50;;;6.97;45.89
52735;BME280;38631;47.572;10.704;2023-04-06T12:36:37;92533.25;;;6.92;46.41
52735;BME280;38631;47.572;10.704;2023-04-06T12:39:02;92530.03;;;6.76;45.63
52735;BME280;38631;47.572;10.704;2023-04-06T12:41:28;92535.75;;;6.59;44.58
52735;BME280;38631;47.572;10.704;2023-04-06T12:43:55;92535.34;;;6.71;45.91
52735;BME280;38631;47.572;10.704;2023-04-06T12:46:20;92526.38;;;6.48;45.86
52735;BME280;38631;47.572;10.704;2023-04-06T12:48:46;92526.31;;;6.53;46.08
52735;BME280;38631;47.572;10.704;2023-04-06T12:51:12;92526.25;;;6.58;45.27
52735;BME280;38631;47.572;10.704;2023-04-06T12:53:38;92525.13;;;6.40;45.12
52735;BME280;38631;47.572;10.704;2023-04-06T12:56:11;92521.75;;;6.35;45.89
52735;BME280;38631;47.572;10.704;2023-04-06T12:58:37;92522.59;;;6.54;45.06